Time;durP1;ratioP1;P1;durP2;ratioP2;P2;SDS_P1;SDS_P2;PMS_P1;PMS_P2;Temp;Humidity;BMP_temperature;BMP_pressure;BME280_temperature;BME280_humidity;BME280_pressure;Samples;Min_cycle;Max_cycle;Signal;HPM_P1;HPM_P2
2022/03/13 00:00:59;;;;;;;12.82;7.32;;;;;;;;;;5055468;28;20690;-77
2022/03/13 00:03:26;;;;;;;9.82;7.38;;;;;;;;;;5064631;28;20273;-73
2022/03/13 00:05:54;;;;;;;7.78;6.63;;;;;;;;;;5070675;28;20197;-74
2022/03/13 00:08:24;;;;;;;9.65;7.85;;;;;;;;;;5067548;28;20190;-74
2022/03/13 00:10:56;;;;;;;8.18;6.55;;;;;;;;;;5075853;28;20220;-75
2022/03/13 00:13:25;;;;;;;8.40;7.60;;;;;;;;;;5084889;28;20193;-75
2022/03/13 00:15:52;;;;;;;7.25;6.47;;;;;;;;;;5061984;28;20554;-75
2022/03/13 00:18:20;;;;;;;8.25;6.93;;;;;;;;;;5070452;28;20194;-73
2022/03/13 00:20:47;;;;;;;9.77;8.35;;;;;;;;;;5070607;28;20676;-73
2022/03/13 00:23:15;;;;;;;9.80;8.50;;;;;;;;;;5066983;28;20618;-74
2022/03/13 00:25:42;;;;;;;10.48;7.80;;;;;;;;;;5077968;28;20218;-74
2022/03/13 00:28:10;;;;;;;7.90;6.95;;;;;;;;;;5072615;28;20198;-75
2022/03/13 00:30:40;;;;;;;9.75;6.80;;;;;;;;;;5069248;28;20221;-74
2022/03/13 00:33:08;;;;;;;9.95;7.55;;;;;;;;;;5070256;28;20565;-75
2022/03/13 00:35:37;;;;;;;8.38;7.30;;;;;;;;;;5071209;28;20289;-75
2022/03/13 00:38:05;;;;;;;12.07;8.35;;;;;;;;;;5070282;28;20342;-74
2022/03/13 00:40:32;;;;;;;8.88;7.60;;;;;;;;;;5051326;28;20206;-74
2022/03/13 00:43:00;;;;;;;11.18;9.00;;;;;;;;;;5070002;28;20561;-74
2022/03/13 00:45:27;;;;;;;9.02;6.97;;;;;;;;;;5060159;28;20237;-74
2022/03/13 00:47:55;;;;;;;12.43;8.25;;;;;;;;;;5070124;28;20251;-73
2022/03/13 00:50:23;;;;;;;10.48;8.43;;;;;;;;;;5074089;28;20218;-74
2022/03/13 00:52:50;;;;;;;9.20;8.13;;;;;;;;;;5079234;28;20241;-75
2022/03/13 00:55:17;;;;;;;10.20;8.40;;;;;;;;;;5066844;28;20203;-74
2022/03/13 00:57:44;;;;;;;10.18;7.88;;;;;;;;;;5069836;28;20197;-75
2022/03/13 01:00:13;;;;;;;9.02;7.75;;;;;;;;;;5055214;28;20195;-74
2022/03/13 01:02:40;;;;;;;11.02;7.63;;;;;;;;;;5070359;28;20225;-74
2022/03/13 01:05:11;;;;;;;9.52;8.63;;;;;;;;;;5070615;28;20194;-75
2022/03/13 01:07:38;;;;;;;10.98;8.43;;;;;;;;;;5079182;28;20646;-74
2022/03/13 01:10:07;;;;;;;10.95;7.50;;;;;;;;;;5080577;28;20193;-74
2022/03/13 01:12:34;;;;;;;12.60;8.38;;;;;;;;;;5081363;28;20202;-75
2022/03/13 01:15:01;;;;;;;11.30;8.15;;;;;;;;;;5067513;28;20657;-74
2022/03/13 01:17:28;;;;;;;8.65;7.65;;;;;;;;;;5072242;28;20190;-75
2022/03/13 01:19:55;;;;;;;9.63;8.15;;;;;;;;;;5074646;28;20193;-74
2022/03/13 01:22:24;;;;;;;11.60;8.50;;;;;;;;;;5086279;28;20194;-75
2022/03/13 01:24:53;;;;;;;8.85;7.95;;;;;;;;;;5077985;28;20218;-74
2022/03/13 01:27:20;;;;;;;10.80;9.35;;;;;;;;;;5073206;28;20197;-75
2022/03/13 01:29:47;;;;;;;11.27;8.20;;;;;;;;;;5069518;28;20197;-74
2022/03/13 01:32:15;;;;;;;11.40;8.23;;;;;;;;;;5071372;28;20214;-75
2022/03/13 01:34:46;;;;;;;10.00;8.85;;;;;;;;;;5069921;28;20198;-74
2022/03/13 01:37:15;;;;;;;10.45;8.23;;;;;;;;;;5068160;28;20228;-74
2022/03/13 01:39:43;;;;;;;9.60;8.68;;;;;;;;;;5074676;28;20201;-74
2022/03/13 01:42:11;;;;;;;9.60;8.65;;;;;;;;;;5072591;28;20218;-75
2022/03/13 01:44:38;;;;;;;11.45;8.63;;;;;;;;;;5068212;28;20190;-74
2022/03/13 01:47:07;;;;;;;9.63;7.75;;;;;;;;;;5073135;28;20206;-75
2022/03/13 01:49:34;;;;;;;9.95;8.70;;;;;;;;;;5075804;28;20206;-74
2022/03/13 01:52:01;;;;;;;10.02;7.75;;;;;;;;;;5081264;28;20229;-74
2022/03/13 01:54:30;;;;;;;8.77;7.90;;;;;;;;;;5069270;28;20264;-75
2022/03/13 01:56:59;;;;;;;9.85;7.95;;;;;;;;;;5089349;28;20651;-76
2022/03/13 01:59:27;;;;;;;11.48;8.75;;;;;;;;;;5073709;28;20535;-74
2022/03/13 02:01:55;;;;;;;11.18;7.93;;;;;;;;;;5068250;28;20542;-74
2022/03/13 02:04:24;;;;;;;10.55;7.65;;;;;;;;;;5073091;28;20191;-73
2022/03/13 02:06:52;;;;;;;9.35;7.75;;;;;;;;;;5071666;28;20201;-73
2022/03/13 02:09:19;;;;;;;9.73;8.00;;;;;;;;;;5062803;28;20198;-74
2022/03/13 02:11:47;;;;;;;9.88;7.82;;;;;;;;;;5073987;28;20226;-74
2022/03/13 02:14:20;;;;;;;12.02;8.30;;;;;;;;;;5074680;28;20289;-75
2022/03/13 02:16:47;;;;;;;11.95;8.50;;;;;;;;;;5072689;28;20504;-75
2022/03/13 02:19:14;;;;;;;12.15;8.80;;;;;;;;;;5073114;28;20198;-73
2022/03/13 02:21:44;;;;;;;9.85;8.35;;;;;;;;;;5066647;28;20199;-73
2022/03/13 02:24:14;;;;;;;9.30;8.02;;;;;;;;;;5061933;28;20222;-74
2022/03/13 02:26:42;;;;;;;10.95;9.02;;;;;;;;;;5070501;28;20190;-74
2022/03/13 02:29:11;;;;;;;11.35;8.27;;;;;;;;;;5074058;28;20719;-74
2022/03/13 02:31:40;;;;;;;10.13;8.10;;;;;;;;;;5072342;28;20647;-74
2022/03/13 02:34:10;;;;;;;10.75;8.63;;;;;;;;;;5071176;28;20194;-74
2022/03/13 02:36:46;;;;;;;10.98;7.60;;;;;;;;;;5067772;28;20198;-74
2022/03/13 02:39:14;;;;;;;9.05;7.53;;;;;;;;;;5053885;28;20218;-74
2022/03/13 02:41:41;;;;;;;10.20;8.40;;;;;;;;;;5064400;28;20665;-73
2022/03/13 02:44:09;;;;;;;11.77;9.80;;;;;;;;;;5064580;28;20199;-75
2022/03/13 02:47:09;;;;;;;12.20;8.32;;;;;;;;;;5072589;28;20480;-74
2022/03/13 02:49:36;;;;;;;10.45;8.20;;;;;;;;;;5023209;28;20203;-74
2022/03/13 02:52:04;;;;;;;9.80;8.07;;;;;;;;;;5026893;28;20223;-74
2022/03/13 02:54:33;;;;;;;9.38;7.70;;;;;;;;;;5037972;28;20190;-73
2022/03/13 02:57:01;;;;;;;10.85;8.18;;;;;;;;;;5073127;28;20187;-74
2022/03/13 02:59:28;;;;;;;12.30;8.85;;;;;;;;;;5071559;28;20592;-74
2022/03/13 03:01:55;;;;;;;12.00;8.30;;;;;;;;;;5072901;28;20205;-73
2022/03/13 03:04:24;;;;;;;13.15;9.60;;;;;;;;;;5071162;28;20247;-75
2022/03/13 03:06:52;;;;;;;13.88;8.73;;;;;;;;;;5066794;28;20596;-73
2022/03/13 03:09:19;;;;;;;9.70;8.02;;;;;;;;;;5072192;28;20687;-73
2022/03/13 03:11:48;;;;;;;8.65;7.60;;;;;;;;;;5072787;28;20584;-74
2022/03/13 03:14:16;;;;;;;9.77;8.77;;;;;;;;;;5068790;28;20205;-73
2022/03/13 03:16:44;;;;;;;12.75;8.32;;;;;;;;;;5067451;28;20715;-73
2022/03/13 03:19:11;;;;;;;9.52;8.20;;;;;;;;;;5077641;28;20265;-76
2022/03/13 03:21:39;;;;;;;10.38;7.85;;;;;;;;;;5072324;28;20202;-73
2022/03/13 03:24:16;;;;;;;8.88;7.20;;;;;;;;;;5070941;28;20613;-73
2022/03/13 03:26:43;;;;;;;10.75;8.13;;;;;;;;;;5068363;28;20204;-75
2022/03/13 03:29:12;;;;;;;8.27;7.45;;;;;;;;;;5059620;28;20836;-74
2022/03/13 03:31:43;;;;;;;10.10;7.82;;;;;;;;;;5076398;28;20217;-75
2022/03/13 03:34:12;;;;;;;9.35;8.20;;;;;;;;;;5075158;28;20202;-75
2022/03/13 03:36:46;;;;;;;10.52;7.63;;;;;;;;;;5067065;28;20195;-74
2022/03/13 03:39:14;;;;;;;9.40;7.38;;;;;;;;;;5053007;28;20202;-74
2022/03/13 03:41:42;;;;;;;9.55;7.65;;;;;;;;;;5072198;28;20194;-75
2022/03/13 03:44:09;;;;;;;8.57;7.15;;;;;;;;;;5069049;28;20248;-74
2022/03/13 03:46:38;;;;;;;8.35;7.00;;;;;;;;;;5065143;28;20202;-73
2022/03/13 03:49:05;;;;;;;9.15;7.28;;;;;;;;;;5071444;28;20565;-74
2022/03/13 03:51:32;;;;;;;9.00;6.80;;;;;;;;;;5067429;28;20210;-74
2022/03/13 03:53:59;;;;;;;11.60;7.80;;;;;;;;;;5072001;28;20190;-75
2022/03/13 03:56:26;;;;;;;8.10;7.32;;;;;;;;;;5071374;28;20190;-73
2022/03/13 03:58:54;;;;;;;8.75;7.07;;;;;;;;;;5066407;28;20553;-74
2022/03/13 04:01:21;;;;;;;10.30;7.32;;;;;;;;;;5076613;28;20201;-74
2022/03/13 04:03:49;;;;;;;8.35;7.38;;;;;;;;;;5074856;28;20251;-75
2022/03/13 04:06:16;;;;;;;10.45;7.93;;;;;;;;;;5070773;28;20198;-74
2022/03/13 04:08:44;;;;;;;10.93;7.82;;;;;;;;;;5062271;28;20212;-74
2022/03/13 04:11:12;;;;;;;8.25;6.60;;;;;;;;;;5069737;28;20237;-74
2022/03/13 04:13:39;;;;;;;9.10;7.47;;;;;;;;;;5067726;28;20202;-74
2022/03/13 04:16:08;;;;;;;9.70;7.38;;;;;;;;;;5061003;28;20190;-75
2022/03/13 04:18:35;;;;;;;8.07;6.80;;;;;;;;;;5070388;28;20198;-74
2022/03/13 04:21:04;;;;;;;8.95;6.95;;;;;;;;;;5073131;28;20198;-73
2022/03/13 04:23:32;;;;;;;8.45;6.97;;;;;;;;;;5076377;28;20217;-74
2022/03/13 04:25:59;;;;;;;9.77;7.38;;;;;;;;;;5071442;28;20194;-74
2022/03/13 04:28:27;;;;;;;8.73;6.60;;;;;;;;;;5069049;28;20259;-74
2022/03/13 04:30:57;;;;;;;9.43;7.05;;;;;;;;;;5067255;28;20697;-75
2022/03/13 04:33:24;;;;;;;11.25;7.55;;;;;;;;;;5074234;28;20190;-75
2022/03/13 04:35:52;;;;;;;8.00;6.57;;;;;;;;;;5070556;28;20201;-73
2022/03/13 04:38:23;;;;;;;8.50;6.53;;;;;;;;;;5066280;28;20202;-74
2022/03/13 04:40:51;;;;;;;8.57;7.03;;;;;;;;;;5062863;28;20206;-75
2022/03/13 04:43:18;;;;;;;8.85;6.75;;;;;;;;;;5082279;28;20217;-74
2022/03/13 04:45:45;;;;;;;9.85;7.28;;;;;;;;;;5066940;28;20186;-74
2022/03/13 04:48:12;;;;;;;8.57;6.45;;;;;;;;;;5069874;28;20626;-73
2022/03/13 04:50:40;;;;;;;10.70;7.90;;;;;;;;;;5069822;28;20190;-73
2022/03/13 04:53:07;;;;;;;6.70;6.00;;;;;;;;;;5069364;28;20218;-74
2022/03/13 04:55:35;;;;;;;7.90;6.97;;;;;;;;;;5061921;28;20240;-75
2022/03/13 04:58:02;;;;;;;9.88;7.57;;;;;;;;;;5069399;28;20680;-74
2022/03/13 05:00:31;;;;;;;8.73;7.03;;;;;;;;;;5066263;28;20894;-73
2022/03/13 05:02:58;;;;;;;9.82;6.90;;;;;;;;;;5076752;28;20216;-74
2022/03/13 05:05:25;;;;;;;11.20;7.90;;;;;;;;;;5069792;28;20198;-74
2022/03/13 05:07:52;;;;;;;7.28;6.50;;;;;;;;;;5068417;28;20194;-75
2022/03/13 05:10:20;;;;;;;8.05;6.65;;;;;;;;;;5064084;28;20201;-74
2022/03/13 05:12:48;;;;;;;6.82;5.70;;;;;;;;;;5067804;28;20300;-74
2022/03/13 05:15:16;;;;;;;9.90;7.60;;;;;;;;;;5068642;28;20232;-74
2022/03/13 05:17:43;;;;;;;10.80;8.10;;;;;;;;;;5050675;28;20564;-74
2022/03/13 05:20:10;;;;;;;9.20;6.20;;;;;;;;;;5073891;28;20198;-73
2022/03/13 05:22:38;;;;;;;9.70;7.10;;;;;;;;;;5067121;28;20224;-73
2022/03/13 05:25:05;;;;;;;9.10;6.43;;;;;;;;;;5069369;28;20291;-74
2022/03/13 05:27:32;;;;;;;10.85;7.38;;;;;;;;;;5070324;28;20198;-73
2022/03/13 05:30:01;;;;;;;11.32;7.53;;;;;;;;;;5056047;28;20257;-74
2022/03/13 05:32:28;;;;;;;9.40;6.65;;;;;;;;;;5070263;28;20229;-74
2022/03/13 05:34:57;;;;;;;8.32;6.03;;;;;;;;;;5070189;28;20198;-74
2022/03/13 05:37:24;;;;;;;7.10;5.80;;;;;;;;;;5068170;28;20303;-74
2022/03/13 05:39:52;;;;;;;8.52;6.90;;;;;;;;;;5070710;28;20198;-73
2022/03/13 05:42:26;;;;;;;8.90;6.65;;;;;;;;;;5069812;28;20194;-75
2022/03/13 05:44:53;;;;;;;7.65;6.35;;;;;;;;;;5065130;28;20198;-74
2022/03/13 05:47:21;;;;;;;7.95;6.82;;;;;;;;;;5068109;28;20209;-74
2022/03/13 05:49:48;;;;;;;6.93;5.72;;;;;;;;;;5068885;28;20202;-73
2022/03/13 05:52:16;;;;;;;7.43;5.68;;;;;;;;;;5070863;28;20206;-75
2022/03/13 05:54:43;;;;;;;10.57;7.70;;;;;;;;;;5065700;28;20195;-74
2022/03/13 05:57:10;;;;;;;8.18;6.45;;;;;;;;;;5073262;28;20190;-74
2022/03/13 05:59:37;;;;;;;7.22;6.25;;;;;;;;;;5062975;28;20194;-75
2022/03/13 06:02:05;;;;;;;7.88;6.78;;;;;;;;;;5073263;28;20206;-73
2022/03/13 06:04:34;;;;;;;8.43;6.40;;;;;;;;;;5084782;28;20557;-74
2022/03/13 06:07:02;;;;;;;9.38;6.40;;;;;;;;;;5075593;28;20645;-75
2022/03/13 06:09:29;;;;;;;8.90;6.75;;;;;;;;;;5070612;28;20572;-74
2022/03/13 06:11:56;;;;;;;8.52;6.82;;;;;;;;;;5073550;28;20210;-74
2022/03/13 06:14:23;;;;;;;7.20;6.20;;;;;;;;;;5064373;28;20222;-74
2022/03/13 06:16:50;;;;;;;8.02;6.50;;;;;;;;;;5074295;28;20190;-73
2022/03/13 06:19:17;;;;;;;8.77;7.38;;;;;;;;;;5072921;28;20556;-76
2022/03/13 06:21:48;;;;;;;8.45;6.13;;;;;;;;;;5071302;28;20209;-74
2022/03/13 06:24:16;;;;;;;7.80;6.30;;;;;;;;;;5068121;28;20214;-74
2022/03/13 06:26:43;;;;;;;7.78;6.97;;;;;;;;;;5082309;28;20660;-74
2022/03/13 06:29:13;;;;;;;8.60;6.47;;;;;;;;;;5079272;28;20205;-74
2022/03/13 06:31:40;;;;;;;7.18;5.72;;;;;;;;;;5073004;28;20194;-74
2022/03/13 06:34:08;;;;;;;8.20;6.47;;;;;;;;;;5073105;28;20190;-74
2022/03/13 06:36:37;;;;;;;7.93;6.45;;;;;;;;;;5071183;28;20195;-73
2022/03/13 06:39:06;;;;;;;8.02;6.40;;;;;;;;;;5058159;28;20286;-74
2022/03/13 06:41:33;;;;;;;8.68;6.57;;;;;;;;;;5063041;28;20198;-74
2022/03/13 06:44:00;;;;;;;8.05;6.13;;;;;;;;;;5066378;28;20565;-73
2022/03/13 06:46:27;;;;;;;9.75;7.07;;;;;;;;;;5062941;28;20557;-74
2022/03/13 06:48:54;;;;;;;8.80;6.47;;;;;;;;;;5073629;28;20320;-73
2022/03/13 06:51:21;;;;;;;7.32;6.60;;;;;;;;;;5071666;28;20577;-74
2022/03/13 06:53:48;;;;;;;10.25;7.97;;;;;;;;;;5070111;28;20891;-73
2022/03/13 06:56:17;;;;;;;8.80;7.35;;;;;;;;;;5077300;28;20189;-73
2022/03/13 06:58:44;;;;;;;8.30;5.90;;;;;;;;;;5071709;28;20222;-74
2022/03/13 07:01:11;;;;;;;8.15;7.28;;;;;;;;;;5054919;28;20566;-74
2022/03/13 07:03:38;;;;;;;8.30;7.00;;;;;;;;;;5065454;28;20284;-73
2022/03/13 07:06:05;;;;;;;8.10;7.28;;;;;;;;;;5069975;28;20305;-74
2022/03/13 07:08:33;;;;;;;8.40;7.30;;;;;;;;;;5068142;28;20194;-74
2022/03/13 07:11:01;;;;;;;10.05;7.78;;;;;;;;;;5072636;28;20232;-73
2022/03/13 07:13:32;;;;;;;14.65;7.20;;;;;;;;;;5076275;28;20217;-73
2022/03/13 07:16:01;;;;;;;7.55;6.75;;;;;;;;;;5071082;28;20190;-73
2022/03/13 07:18:29;;;;;;;9.23;7.50;;;;;;;;;;5077884;28;20194;-73
2022/03/13 07:20:56;;;;;;;7.78;6.88;;;;;;;;;;5069614;28;20194;-73
2022/03/13 07:23:23;;;;;;;8.40;7.00;;;;;;;;;;5073684;28;20557;-73
2022/03/13 07:25:50;;;;;;;10.70;8.32;;;;;;;;;;5070281;28;20198;-72
2022/03/13 07:28:17;;;;;;;7.28;5.75;;;;;;;;;;5072103;28;20205;-72
2022/03/13 07:30:46;;;;;;;9.95;8.00;;;;;;;;;;5066723;28;20645;-73
2022/03/13 07:33:13;;;;;;;7.13;6.03;;;;;;;;;;5072363;28;20213;-72
2022/03/13 07:35:40;;;;;;;9.10;6.03;;;;;;;;;;5071048;28;20196;-73
2022/03/13 07:38:08;;;;;;;8.05;6.93;;;;;;;;;;5067889;28;20186;-74
2022/03/13 07:40:35;;;;;;;7.88;6.63;;;;;;;;;;5073620;28;20221;-72
2022/03/13 07:43:02;;;;;;;7.45;6.47;;;;;;;;;;5074982;28;20200;-73
2022/03/13 07:45:29;;;;;;;8.43;7.40;;;;;;;;;;5066220;28;20190;-74
2022/03/13 07:47:59;;;;;;;8.48;6.47;;;;;;;;;;5069462;28;20210;-75
2022/03/13 07:50:26;;;;;;;7.35;5.53;;;;;;;;;;5070730;28;20227;-74
2022/03/13 07:52:54;;;;;;;9.82;7.00;;;;;;;;;;5066256;28;20221;-75
2022/03/13 07:55:21;;;;;;;5.93;5.28;;;;;;;;;;5073063;28;20186;-74
2022/03/13 07:57:48;;;;;;;6.47;5.60;;;;;;;;;;5069550;28;20217;-75
2022/03/13 08:00:17;;;;;;;7.05;5.90;;;;;;;;;;5070102;28;20197;-74
2022/03/13 08:02:46;;;;;;;8.98;6.60;;;;;;;;;;5067409;28;20281;-75
2022/03/13 08:05:15;;;;;;;6.57;5.35;;;;;;;;;;5069510;28;20198;-74
2022/03/13 08:07:43;;;;;;;6.35;5.65;;;;;;;;;;5069271;28;20190;-75
2022/03/13 08:10:10;;;;;;;8.55;6.60;;;;;;;;;;5067773;28;20195;-76
2022/03/13 08:12:38;;;;;;;7.68;5.60;;;;;;;;;;5074697;28;20217;-74
2022/03/13 08:15:06;;;;;;;6.25;5.32;;;;;;;;;;5069272;28;20244;-73
2022/03/13 08:17:33;;;;;;;7.70;5.93;;;;;;;;;;5069665;28;20218;-73
2022/03/13 08:20:00;;;;;;;5.30;4.78;;;;;;;;;;5064130;28;20194;-74
2022/03/13 08:22:29;;;;;;;5.65;4.70;;;;;;;;;;5069040;28;20205;-73
2022/03/13 08:24:56;;;;;;;6.07;5.20;;;;;;;;;;5075676;28;20222;-74
2022/03/13 08:27:23;;;;;;;8.00;5.90;;;;;;;;;;5068830;28;20202;-73
2022/03/13 08:29:50;;;;;;;5.93;5.00;;;;;;;;;;5065936;28;20668;-72
2022/03/13 08:32:17;;;;;;;8.50;5.38;;;;;;;;;;5070597;28;20677;-74
2022/03/13 08:34:45;;;;;;;5.20;4.45;;;;;;;;;;5069942;28;20190;-73
2022/03/13 08:37:12;;;;;;;8.68;5.00;;;;;;;;;;5062417;28;20247;-73
2022/03/13 08:39:41;;;;;;;5.05;4.20;;;;;;;;;;5067847;28;20194;-72
2022/03/13 08:42:08;;;;;;;5.22;4.72;;;;;;;;;;5071068;28;20198;-72
2022/03/13 08:44:35;;;;;;;6.40;5.50;;;;;;;;;;5065165;28;20207;-71
2022/03/13 08:47:02;;;;;;;6.35;4.70;;;;;;;;;;5069535;28;20667;-82
2022/03/13 08:49:29;;;;;;;6.05;5.10;;;;;;;;;;5070618;28;20194;-71
2022/03/13 08:51:57;;;;;;;7.38;4.85;;;;;;;;;;5069843;28;20221;-70
2022/03/13 08:54:24;;;;;;;5.10;4.60;;;;;;;;;;5071816;28;20718;-71
2022/03/13 08:56:52;;;;;;;7.45;6.32;;;;;;;;;;5080141;28;20196;-71
2022/03/13 08:59:20;;;;;;;5.50;4.70;;;;;;;;;;5062639;28;20210;-71
2022/03/13 09:01:47;;;;;;;6.00;4.78;;;;;;;;;;5071267;28;20209;-72
2022/03/13 09:04:15;;;;;;;5.70;5.10;;;;;;;;;;5067498;28;20237;-71
2022/03/13 09:06:43;;;;;;;5.10;4.20;;;;;;;;;;5069191;28;20580;-71
2022/03/13 09:09:10;;;;;;;7.43;5.25;;;;;;;;;;5067357;28;20201;-73
2022/03/13 09:11:37;;;;;;;5.63;4.65;;;;;;;;;;5077096;28;20217;-72
2022/03/13 09:14:06;;;;;;;4.97;4.55;;;;;;;;;;5068806;28;20218;-72
2022/03/13 09:16:35;;;;;;;5.20;4.70;;;;;;;;;;5067043;28;20317;-71
2022/03/13 09:19:02;;;;;;;5.10;4.32;;;;;;;;;;5077409;28;20193;-72
2022/03/13 09:21:31;;;;;;;5.45;4.80;;;;;;;;;;5066227;28;20214;-73
2022/03/13 09:23:58;;;;;;;5.30;4.63;;;;;;;;;;5061829;28;20226;-72
2022/03/13 09:26:26;;;;;;;6.40;4.85;;;;;;;;;;5073638;28;20203;-72
2022/03/13 09:28:53;;;;;;;5.60;4.63;;;;;;;;;;5065955;28;20191;-73
2022/03/13 09:31:21;;;;;;;8.90;6.53;;;;;;;;;;5075802;28;20221;-73
2022/03/13 09:33:48;;;;;;;5.13;4.45;;;;;;;;;;5072743;28;20224;-73
2022/03/13 09:36:15;;;;;;;5.30;4.38;;;;;;;;;;5073003;28;20363;-73
2022/03/13 09:38:42;;;;;;;6.95;6.00;;;;;;;;;;5075368;28;20196;-72
2022/03/13 09:41:09;;;;;;;6.70;5.40;;;;;;;;;;5085420;28;20201;-73
2022/03/13 09:43:37;;;;;;;6.40;5.05;;;;;;;;;;5076901;28;20221;-72
2022/03/13 09:46:04;;;;;;;6.50;5.72;;;;;;;;;;5073453;28;20201;-72
2022/03/13 09:48:36;;;;;;;5.78;4.85;;;;;;;;;;5074103;28;20197;-71
2022/03/13 09:51:04;;;;;;;6.22;4.55;;;;;;;;;;5073963;28;20223;-72
2022/03/13 09:53:31;;;;;;;6.88;5.70;;;;;;;;;;5070430;28;20225;-72
2022/03/13 09:56:01;;;;;;;6.97;5.70;;;;;;;;;;5075803;28;20194;-72
2022/03/13 09:58:29;;;;;;;9.43;5.72;;;;;;;;;;5072181;28;20194;-72
2022/03/13 10:00:56;;;;;;;6.15;5.55;;;;;;;;;;5069208;28;20197;-73
2022/03/13 10:03:23;;;;;;;5.32;4.40;;;;;;;;;;5072150;28;20194;-71
2022/03/13 10:05:52;;;;;;;6.20;5.60;;;;;;;;;;5071232;28;20194;-72
2022/03/13 10:08:20;;;;;;;10.10;5.35;;;;;;;;;;5068317;28;20202;-72
2022/03/13 10:10:47;;;;;;;5.85;5.30;;;;;;;;;;5071483;28;20617;-72
2022/03/13 10:13:15;;;;;;;6.03;4.82;;;;;;;;;;5072079;28;20210;-71
2022/03/13 10:15:43;;;;;;;10.95;5.80;;;;;;;;;;5069385;28;20704;-72
2022/03/13 10:18:14;;;;;;;6.10;5.38;;;;;;;;;;5065522;28;20265;-72
2022/03/13 10:20:43;;;;;;;6.32;5.25;;;;;;;;;;5069095;28;20194;-72
2022/03/13 10:23:15;;;;;;;7.20;5.53;;;;;;;;;;5068921;28;20209;-72
2022/03/13 10:25:43;;;;;;;7.03;5.75;;;;;;;;;;5072318;28;20197;-72
2022/03/13 10:28:18;;;;;;;6.63;5.50;;;;;;;;;;5067157;28;20190;-73
2022/03/13 10:30:47;;;;;;;6.20;5.60;;;;;;;;;;5075078;28;20202;-72
2022/03/13 10:33:14;;;;;;;7.25;6.40;;;;;;;;;;5069520;28;20580;-71
2022/03/13 10:35:42;;;;;;;6.47;5.32;;;;;;;;;;5070500;28;20196;-72
2022/03/13 10:38:17;;;;;;;8.63;5.50;;;;;;;;;;5068122;28;20194;-72
2022/03/13 10:40:45;;;;;;;9.93;7.05;;;;;;;;;;5082880;28;20185;-72
2022/03/13 10:43:19;;;;;;;7.47;6.65;;;;;;;;;;5071210;28;20202;-72
2022/03/13 10:45:51;;;;;;;7.97;6.20;;;;;;;;;;5070014;28;20644;-72
2022/03/13 10:48:21;;;;;;;7.43;6.50;;;;;;;;;;5073007;28;20675;-73
2022/03/13 10:50:50;;;;;;;9.05;7.63;;;;;;;;;;5072826;28;20189;-72
2022/03/13 10:53:19;;;;;;;6.93;5.80;;;;;;;;;;5069851;28;20297;-72
2022/03/13 10:56:00;;;;;;;8.80;7.93;;;;;;;;;;5080156;28;20284;-72
2022/03/13 10:58:29;;;;;;;11.25;8.35;;;;;;;;;;5067639;28;20461;-72
2022/03/13 11:01:04;;;;;;;15.00;9.57;;;;;;;;;;5070355;28;20333;-72
2022/03/13 11:03:32;;;;;;;13.65;8.55;;;;;;;;;;5068849;28;20197;-72
2022/03/13 11:05:59;;;;;;;10.63;7.40;;;;;;;;;;5070248;28;20196;-72
2022/03/13 11:08:28;;;;;;;10.48;9.02;;;;;;;;;;5069110;28;20201;-72
2022/03/13 11:10:55;;;;;;;10.75;6.85;;;;;;;;;;5081175;28;20189;-72
2022/03/13 11:13:24;;;;;;;11.07;7.93;;;;;;;;;;5069563;28;20719;-72
2022/03/13 11:15:51;;;;;;;10.30;7.72;;;;;;;;;;5074308;28;20661;-71
2022/03/13 11:18:20;;;;;;;9.50;7.90;;;;;;;;;;5071048;28;20201;-72
2022/03/13 11:20:48;;;;;;;12.23;8.80;;;;;;;;;;5073655;28;20552;-71
2022/03/13 11:23:15;;;;;;;10.68;8.10;;;;;;;;;;5059901;28;20201;-73
2022/03/13 11:25:43;;;;;;;10.73;7.88;;;;;;;;;;5069885;28;20197;-72
2022/03/13 11:28:10;;;;;;;11.50;7.60;;;;;;;;;;5061210;28;20206;-74
2022/03/13 11:30:39;;;;;;;10.10;7.57;;;;;;;;;;5065457;28;20569;-73
2022/03/13 11:33:07;;;;;;;11.50;8.45;;;;;;;;;;5067790;28;20673;-72
2022/03/13 11:35:34;;;;;;;9.38;7.15;;;;;;;;;;5067421;28;20205;-72
2022/03/13 11:38:18;;;;;;;9.23;7.63;;;;;;;;;;5060288;28;20209;-71
2022/03/13 11:40:47;;;;;;;10.65;7.60;;;;;;;;;;5073361;28;20665;-72
2022/03/13 11:43:16;;;;;;;9.10;7.72;;;;;;;;;;5068009;28;20213;-72
2022/03/13 11:45:43;;;;;;;8.20;6.90;;;;;;;;;;5069031;28;20721;-71
2022/03/13 11:48:40;;;;;;;8.07;6.50;;;;;;;;;;5068584;28;20195;-73
2022/03/13 11:51:08;;;;;;;11.38;7.68;;;;;;;;;;5070741;28;20194;-71
2022/03/13 11:53:45;;;;;;;9.35;7.28;;;;;;;;;;5067363;28;20213;-72
2022/03/13 11:56:21;;;;;;;10.02;7.82;;;;;;;;;;5071098;28;20209;-73
2022/03/13 11:58:49;;;;;;;11.27;7.00;;;;;;;;;;5061699;28;20197;-71
2022/03/13 12:01:18;;;;;;;9.57;7.28;;;;;;;;;;5065782;28;20194;-73
2022/03/13 12:04:04;;;;;;;11.10;7.88;;;;;;;;;;5069031;28;20201;-73
2022/03/13 12:06:40;;;;;;;10.23;7.10;;;;;;;;;;5068542;28;20194;-73
2022/03/13 12:09:08;;;;;;;10.15;7.68;;;;;;;;;;5066698;28;20202;-73
2022/03/13 12:11:39;;;;;;;10.05;7.88;;;;;;;;;;5071404;28;20206;-72
2022/03/13 12:14:07;;;;;;;9.10;7.30;;;;;;;;;;5062980;28;20315;-72
2022/03/13 12:16:34;;;;;;;11.38;8.32;;;;;;;;;;5064529;28;20198;-72
2022/03/13 12:19:01;;;;;;;8.52;7.18;;;;;;;;;;5066199;28;20201;-72
2022/03/13 12:21:28;;;;;;;8.98;7.60;;;;;;;;;;5063212;28;20206;-71
2022/03/13 12:23:58;;;;;;;9.38;7.75;;;;;;;;;;5067559;28;20240;-72
2022/03/13 12:26:29;;;;;;;9.88;7.68;;;;;;;;;;5050527;28;20221;-71
2022/03/13 12:28:59;;;;;;;7.70;5.65;;;;;;;;;;5061427;28;20283;-71
2022/03/13 12:31:27;;;;;;;9.70;7.07;;;;;;;;;;5062693;28;20201;-71
2022/03/13 12:33:55;;;;;;;7.65;6.85;;;;;;;;;;5065346;28;20221;-72
2022/03/13 12:36:24;;;;;;;8.13;7.10;;;;;;;;;;5067279;28;20699;-71
2022/03/13 12:38:52;;;;;;;8.65;6.95;;;;;;;;;;5062677;28;20230;-72
2022/03/13 12:41:20;;;;;;;9.88;6.90;;;;;;;;;;5067412;28;20198;-72
2022/03/13 12:43:52;;;;;;;15.23;8.30;;;;;;;;;;5069044;28;20198;-71
2022/03/13 12:46:22;;;;;;;7.80;6.32;;;;;;;;;;5066276;28;20209;-72
2022/03/13 12:48:53;;;;;;;9.00;7.20;;;;;;;;;;5072839;28;20200;-72
2022/03/13 12:51:34;;;;;;;8.45;6.78;;;;;;;;;;5065832;28;20294;-72
2022/03/13 12:54:02;;;;;;;9.13;6.88;;;;;;;;;;5060650;28;20286;-72
2022/03/13 12:56:30;;;;;;;8.20;6.75;;;;;;;;;;5064401;28;20227;-72
2022/03/13 12:58:57;;;;;;;8.77;6.45;;;;;;;;;;5061047;28;20204;-72
2022/03/13 13:01:25;;;;;;;9.55;7.10;;;;;;;;;;5062397;28;20664;-72
2022/03/13 13:03:53;;;;;;;9.10;7.22;;;;;;;;;;5071732;28;20205;-72
2022/03/13 13:06:30;;;;;;;9.73;6.85;;;;;;;;;;5071563;28;20205;-72
2022/03/13 13:08:57;;;;;;;8.45;6.25;;;;;;;;;;5066218;28;20219;-72
2022/03/13 13:11:31;;;;;;;7.50;5.82;;;;;;;;;;5069127;28;20194;-71
2022/03/13 13:13:59;;;;;;;9.95;7.00;;;;;;;;;;5067868;28;20193;-72
2022/03/13 13:16:30;;;;;;;10.07;7.25;;;;;;;;;;5070462;28;20264;-72
2022/03/13 13:18:57;;;;;;;6.38;5.22;;;;;;;;;;5075707;28;20690;-71
2022/03/13 13:21:33;;;;;;;7.18;6.18;;;;;;;;;;5067958;28;20210;-72
2022/03/13 13:24:00;;;;;;;13.75;6.40;;;;;;;;;;5060558;28;20781;-72
2022/03/13 13:26:41;;;;;;;7.20;5.78;;;;;;;;;;5073565;28;20213;-72
2022/03/13 13:29:08;;;;;;;6.20;5.53;;;;;;;;;;5069756;28;20197;-72
2022/03/13 13:31:37;;;;;;;6.75;5.82;;;;;;;;;;5073818;28;20195;-72
2022/03/13 13:34:16;;;;;;;6.75;5.38;;;;;;;;;;5069728;28;20540;-71
2022/03/13 13:36:44;;;;;;;11.93;6.97;;;;;;;;;;5069281;28;20201;-72
2022/03/13 13:39:11;;;;;;;12.25;7.10;;;;;;;;;;5061643;28;20190;-72
2022/03/13 13:41:40;;;;;;;7.78;6.95;;;;;;;;;;5075094;28;20198;-73
2022/03/13 13:44:07;;;;;;;14.02;8.40;;;;;;;;;;5067801;28;20649;-72
2022/03/13 13:46:35;;;;;;;11.15;8.27;;;;;;;;;;5066247;28;20189;-74
2022/03/13 13:49:03;;;;;;;9.68;7.43;;;;;;;;;;5071133;28;20299;-72
2022/03/13 13:51:35;;;;;;;9.05;7.32;;;;;;;;;;5067446;28;20198;-72
2022/03/13 13:54:17;;;;;;;8.48;6.72;;;;;;;;;;5066867;28;20202;-72
2022/03/13 13:56:49;;;;;;;7.72;6.47;;;;;;;;;;5068772;28;20200;-72
2022/03/13 13:59:21;;;;;;;9.50;6.63;;;;;;;;;;5058927;28;20202;-73
2022/03/13 14:01:49;;;;;;;6.65;5.95;;;;;;;;;;5075191;28;20190;-73
2022/03/13 14:04:18;;;;;;;9.00;6.80;;;;;;;;;;5070477;28;20216;-72
2022/03/13 14:06:46;;;;;;;8.50;6.30;;;;;;;;;;5068113;28;20550;-73
2022/03/13 14:09:13;;;;;;;7.38;6.63;;;;;;;;;;5062333;28;20187;-73
2022/03/13 14:11:42;;;;;;;7.22;6.03;;;;;;;;;;5074869;28;20209;-72
2022/03/13 14:14:09;;;;;;;8.35;5.70;;;;;;;;;;5068896;28;20260;-73
2022/03/13 14:16:36;;;;;;;8.98;6.90;;;;;;;;;;5079268;28;20194;-72
2022/03/13 14:19:04;;;;;;;7.32;5.72;;;;;;;;;;5074008;28;20217;-72
2022/03/13 14:21:33;;;;;;;9.95;6.82;;;;;;;;;;5075290;28;20202;-72
2022/03/13 14:24:00;;;;;;;9.00;5.97;;;;;;;;;;5076056;28;20217;-72
2022/03/13 14:26:27;;;;;;;8.48;6.00;;;;;;;;;;5065234;28;20202;-72
2022/03/13 14:28:54;;;;;;;6.57;5.85;;;;;;;;;;5067420;28;20191;-72
2022/03/13 14:31:21;;;;;;;7.60;5.70;;;;;;;;;;5072555;28;20204;-72
2022/03/13 14:33:48;;;;;;;6.97;5.70;;;;;;;;;;5079525;28;20193;-72
2022/03/13 14:36:15;;;;;;;7.03;6.03;;;;;;;;;;5072317;28;20210;-72
2022/03/13 14:38:48;;;;;;;7.07;5.95;;;;;;;;;;5070505;28;20201;-72
2022/03/13 14:41:15;;;;;;;9.63;6.45;;;;;;;;;;5071356;28;20199;-72
2022/03/13 14:43:43;;;;;;;7.82;5.43;;;;;;;;;;5077159;28;20191;-72
2022/03/13 14:46:10;;;;;;;7.03;6.32;;;;;;;;;;5070926;28;20198;-73
2022/03/13 14:48:37;;;;;;;8.00;5.22;;;;;;;;;;5070268;28;20205;-72